Lulu Pass Weather Station

This weather station provides temperature, relative humidity (RH), wind speed, gust or max wind speed, and wind direction at 10014ft near Lulu Pass at the head of Fisher Creek. This data can be used with temperature and precipitation data from the Fisher Creek SNOTEL site.

This weather station was purchased by the Friends of the Avalanche Center.

If the data has not been updated recently you can view it directly on datagarrison.com

Elevation
10014ft
Jump to table bottom
Date Time Temperature
deg F
RH, % Wind Speed Wind Gust Wind Direction
01/20/22 22:00 18.4 95 19 37 W - 281
01/20/22 21:00 15.3 93 15 22 S - 201
01/20/22 20:00 12.6 92 14 24 W - 250
01/20/22 19:00 14.2 93 15 21 S - 202
01/20/22 18:00 10.4 92 16 23 S - 185
01/20/22 17:00 11.7 92 17 27 S - 174
01/20/22 16:00 11.0 91 18 28 S - 175
01/20/22 15:00 13.6 93 17 26 SW - 222
01/20/22 14:00 14.6 93 18 26 SW - 204
01/20/22 13:00 11.9 92 18 25 S - 198
01/20/22 12:00 12.6 92 17 24 SW - 215
01/20/22 11:00 10.4 91 16 23 SW - 219
01/20/22 10:00 11.2 92 14 21 SW - 226
01/20/22 09:00 10.4 91 12 18 SW - 220
01/20/22 08:00 11.5 90 10 17 SW - 225
01/20/22 07:00 12.4 77 11 17 SW - 243
01/20/22 06:00 11.9 80 11 16 SW - 227
01/20/22 05:00 8.4 90 11 17 SW - 222
01/20/22 04:00 7.4 90 10 14 SW - 209
01/20/22 03:00 9.7 90 8 12 SW - 218
01/20/22 02:00 9.8 89 9 12 SW - 236
01/20/22 01:00 10.3 91 9 13 SW - 246
01/20/22 00:00 11.2 89 10 15 W - 275
01/19/22 23:00 10.7 91 10 14 W - 279
01/19/22 22:00 11.5 86 10 15 W - 291
01/19/22 21:00 12.2 83 10 15 NW - 303
01/19/22 20:00 12.1 85 7 14 NW - 309
01/19/22 19:00 12.9 86 4 9 NW - 316
01/19/22 18:00 12.8 81 6 12 NW - 314
01/19/22 17:00 13.8 79 7 15 NW - 313
01/19/22 16:00 14.9 76 10 18 NW - 321
01/19/22 15:00 16.4 91 10 17 N - 343
01/19/22 14:00 16.5 88 9 17 N - 344
01/19/22 13:00 15.7 92 9 17 N - 338
01/19/22 12:00 16.3 92 14 28 N - 340
01/19/22 11:00 15.6 93 12 21 N - 345
01/19/22 10:00 15.3 93 6 21 N - 344
01/19/22 09:00 15.1 93 7 14 N - 338
01/19/22 08:00 14.9 93 7 22 N - 343
01/19/22 07:00 15.0 93 4 12 NW - 337
01/19/22 06:00 15.2 93 7 12 NW - 324
01/19/22 05:00 15.7 93 7 15 NW - 313
01/19/22 04:00 16.2 94 3 8 W - 281
01/19/22 03:00 16.4 94 5 12 NW - 295
01/19/22 02:00 16.9 94 5 12 NW - 317
01/19/22 01:00 17.2 94 9 17 NW - 312
01/19/22 00:00 17.4 94 10 17 NW - 306
01/18/22 23:00 17.1 94 11 17 W - 288
01/18/22 22:00 17.6 94 14 24 W - 292
01/18/22 21:00 16.8 93 9 19 W - 282